< < Back
Terminal Aerodrome Forecast


Current Version              Previous Versions:   1  2  3  4  5  6  7  8  9  

Terminal Aerodrome Forecast

213
FTUS42 KFFC 281000 AAD
TAFPDK
TAF AMD
KPDK 281011Z 2810/2906 26006KT P6SM VCSH SCT025 BKN040
      TEMPO 2810/2814 5SM -SHRA BKN025
     FM281400 29008G16KT P6SM BKN050
     FM281800 31010G18KT P6SM SCT050
     FM290100 32008KT P6SM SCT100=

Latest METAR

187
SAUS70 KWBC 281000 RRA
MTRPDK
METAR KPDK 280953Z AUTO 26005KT 8SM FEW022 26/22 A2992 RMK AO2 SLP111
T02560217 $


USA.gov is the U.S. government's official web portal to all federal, state and local government web resources and services.